Extreme weather reports worldwide

Atmospheric pressure

Low pressure

Station
 
Location
 
Name
 
Wind
Knots
Gust
Knots
Vis
SM
Temp/Dew
C
Baro
inHg
METAR
 
EBB HUEN Kampala, UG Entebbe International Airport 4 6.21 21/19 HUEN 232100Z 36004KT 9999 FEW020 FEW022CB 21/19 Q1917
ACC DGAA Accra, GH Kotoka International Airport 11 6.21 25/23 DGAA 232100Z 21011KT 9999 SCT012 BKN021 25/23 Q1105 NOSIG
CZCP 5 1/1 25.52 CZCP 232100Z AUTO 05005KT ////SM //// OVC002 01/01 A2552
ENUG 7 9/6 28.97 ENUG 232120Z AUTO 12007KT 090V160 9999NDV NCD 09/06 Q0981 W///S4
HFT ENHF Hammerfest, NO Hammerfest Airport 15 28 6.21 10/6 29.00 ENHF 232120Z 20015G28KT 150V220 9999 FEW015 SCT072 10/06 Q0982 RMK WIND 1254FT 19032KT

Station
 
Location
 
Name
 
Wind
Knots
Gust
Knots
Vis
SM
Temp/Dew
C
Baro
inHg
METAR
 
YJT CYJT Stephenville, CA Stephenville Airport 21 30 15 16/13 29.02 CYJT 232100Z 16021G30KT 15SM OVC024 16/13 A2902 RMK SC8 SLP828 DENSITY ALT 1300FT
TNM SCRM Isla Rey Jorge, AQ Teniente Rodolfo Marsh Martin Base 13 6.21 -2/-2 29.06 SCRM 232100Z 01013KT 9999 SCT004 BKN007 M02/M02 Q0984 NOSIG
MDO PAMD Middleton Island, US Middleton Island Airport 18 3 11/11 29.07 PAMD 232119Z AUTO 08018KT 3SM -RA BR OVC005 11/11 A2907 RMK AO2 CIG 004V009 P0001
TOS ENTC Tromsø, NO Tromsø Airport 36 52 6.21 9/3 29.08 ENTC 232120Z 22036G52KT 9999 -SHRA BKN042 09/03 Q0985 RMK WIND 2600FT 19057G71KT
MEH ENMH Mehamn, NO Mehamn Airport 22 6.21 9/5 29.08 ENMH 232120Z 18022KT CAVOK 09/05 Q0985
HVG ENHV Honningsvåg, NO Valan Airport 23 38 6.21 9/6 29.08 ENHV 232120Z 19023G38KT 150V230 9999 -RA BKN017 09/06 Q0985
ALF ENAT Alta, NO Alta Airport 12 27 6.21 11/4 29.08 ENAT 232120Z AUTO 21012G27KT 170V250 9999 R11///// R29/P2000N // NCD 11/04 Q0985 RMK WIND 700FT 20028KT
ADQ PADQ Kodiak, US Kodiak Airport 3 5 13/9 29.09 PADQ 232105Z 35003KT 5SM HZ FEW015 BKN020 OVC029 13/09 A2909 RMK AO2 T01330094 $
YDF CYDF Deer Lake, CA Deer Lake Airport 18 34 15 19/14 29.09 CYDF 232100Z 18018G34KT 15SM -RA SCT025 OVC040 19/14 A2909 RMK SC4SC4 VIS W 5 SLP852 DENSITY ALT 1500FT
YNA CYNA Natashquan, CA Natashquan Airport 15 24 4 11/10 29.10 CYNA 232100Z AUTO 36015G24KT 4SM -RA BR OVC034 11/10 A2910 RMK SLP854 DENSITY ALT 500FT
YZG CYZG Salluit, CA Salluit Airport 15 10 4/1 29.11 CYZG 232100Z 18015KT 10SM -RA FEW013 SCT032 BKN045 04/01 A2911 RMK ST2SC2SC3 LAST STFD OBS/NEXT241200 UTC SLP874
LKL ENNA Lakselv, NO Banak Airport 19 6.21 10/6 29.11 ENNA 232120Z 15019KT 9999 BKN022 10/06 Q0986 RMK WIND 1800FT 16019G30KT
OMS UNOO Omsk, RU Omsk Central Airport 8 6.21 6/6 29.11 UNOO 232100Z 27004MPS 9999 -SHRA BKN008 BKN023CB 06/06 Q0986 R25/290050 NOSIG RMK QFE731
AKK PAKH Akhiok, US Akhiok Airport / 29.12 PAKH 232056Z AUTO OVC050 A2912 RMK AO2 SLPNO 51003 PWINO FZRANO $
SWD PAWD Seward, US Seward Airport 13 18 10 12/6 29.12 PAWD 232053Z AUTO 36013G18KT 10SM BKN070 OVC085 13/07 A2912 RMK AO2 SLP861 60001 T01280067 56002 TSNO
FRN PAFR Fort Richardson(Anchorage), US Bryant Army Heliport 0 9 9/8 29.14 PAFR 232102Z AUTO 00000KT 9SM -RA OVC060 09/08 A2914 RMK AO2 RAB02 SLP874
SOV PASO Seldovia, US Seldovia Airport 0 10 11/9 29.14 PASO 232053Z AUTO 00000KT 10SM SCT008 OVC065 11/09 A2914 RMK AO2 RAB1957E48 SLP867 P0001 60002 T01110094 51002 TSNO
HOM PAHO Homer, US Homer Airport 5 10 11/9 29.14 PAHO 232051Z 19005KT 10SM OVC070 11/09 A2914 RMK A02
BVG ENBV Berlevåg, NO Berlevåg Airport 7 6.21 9/5 29.14 ENBV 232050Z 21007KT 130V300 9999 SCT029 BKN090 09/05 Q0987
BJF ENBS BÃ¥tsfjord, NO BÃ¥tsfjord Airport 24 38 6.21 7/4 29.14 ENBS 232050Z 22024G38KT 9999 FEW014 SCT100 07/04 Q0987
YBX CYBX Lourdes-De-Blanc-Sablon, CA Lourdes de Blanc Sablon Airport 17 24 15 17/16 29.15 CYBX 232100Z 10017G24KT 15SM -SHRA BKN050 OVC085 17/16 A2915 RMK SC5AC3 CVCTV CLD EMBD PRESFR SLP875 DENSITY ALT 1300FT
YAK PAYA Yakutat, US Yakutat Airport 7 10 12/9 29.15 PAYA 232053Z AUTO 02007KT 10SM -RA OVC065 12/09 A2915 RMK AO2 RAB01 SLP873 P0001 60001 T01220094 50002 TSNO
SIT PASI Sitka, US Sitka Rocky Gutierrez Airport 5 9 13/10 29.15 PASI 232053Z 13005KT 9SM -RA FEW030 OVC060 14/10 A2915 RMK AO2 RAE11B34 SLP871 P0000 60002 T01390100 58003
ENA PAEN Kenai, US Kenai Municipal Airport 12 10 13/7 29.15 PAEN 232053Z 04012KT 10SM SCT060 BKN110 14/07 A2915 RMK AO2 RAE1958 SLP872 P0000 60002 T01390072 58002
ANC PANC Anchorage, US Ted Stevens Anchorage International Airport 3 10 10/6 29.16 PANC 232053Z 06003KT 10SM -RA OVC075 10/07 A2916 RMK AO2 RAB07 SLP876 P0001 60001 T01000067 55004
CDV PACV Cordova, US Merle K (Mudhole) Smith Airport 0 10 12/10 29.16 PACV 232053Z 00000KT 10SM OVC070 13/10 A2916 RMK AO2 RAB33E50 SLP874 P0000 60001 T01280100 56001
PAQ PAAQ Palmer, US Warren "Bud" Woods Palmer Municipal Airport 3 10 10/6 29.16 PAAQ 232053Z 13003KT 10SM OVC110 11/06 A2916 RMK AO2 SLP876 60000 T01060061 56004
SXQ PASX Soldotna, US Soldotna Airport 8 10 12/8 29.17 PASX 232056Z AUTO 08008KT 10SM FEW014 BKN060 13/09 A2917 RMK AO2 SLP887 60001 T01280089 58003
EDF PAED Anchorage, US Elmendorf Air Force Base 0 10 9/7 29.17 PAED 232056Z 00000KT 10SM OVC070 10/07 A2917 RMK AO2A DZB14E24 SLP874 P0000 60000 T00990073 55002 $
TKA PATK Talkeetna, US Talkeetna Airport 3 10 11/6 29.17 PATK 232053Z 22003KT 10SM OVC095 11/06 A2917 RMK AO2 SLP879 T01110061 58004
MRI PAMR Anchorage, US Merrill Field 3 10 10/6 29.17 PAMR 232053Z 32003KT 10SM OVC075 10/07 A2917 RMK AO2 RAE46 SLP877 P0000 60001 T01000067 55003
WWA PAWS Wasilla, US Wasilla Airport 0 10 11/6 29.18 PAWS 232056Z AUTO 00000KT 10SM BKN065 BKN085 11/06 A2918 RMK AO2 SLP884 60000 T01110061 57004
PABV Birchwood, US Birchwood Airport 3 10 8/7 29.18 PABV 232056Z AUTO 20003KT 10SM OVC070 09/07 A2918 RMK AO2 RAE1957 SLP887 60000 T00890072 56005
PALH Anchorage, US Lake Hood Airport 4 10 10/7 29.18 PALH 232053Z 03004KT 10SM -RA OVC070 10/07 A2918 RMK AO2 RAB13 SLP880 P0001 60001 T01000072 55005
PAPT 5 25 9/7 29.19 PAPT 232101Z 02005KT 25SM FEW025 SCT050 BKN100 09/07 A2919 RMK NO SPECI.
PAZK 6 10 5/2 29.19 PAZK 232056Z AUTO 06006KT 10SM SCT049 BKN060 06/02 A2919 RMK AO2 SLP912 T00560022 55007
ELV PAEL Elfin Cove, US Elfin Cove Seaplane Base 12 20 15 12/9 29.19 PAEL 232045Z 09012G20KT 15SM -RA SCT010 OVC040 12/09 A2919 RMK SPB E03015G25KT SEA 0 SWELL 2 SW NOSPECI
YGR CYGR ÃŽles-de-la-Madeleine, CA ÃŽles-de-la-Madeleine Airport 22 31 2.5 11/10 29.20 CYGR 232100Z 31022G31KT 2 1/2SM -RA BR OVC006 11/10 A2920 RMK SF8 PRESRR SLP891 DENSITY ALT 400FT
YDB CYDB Burwash, CA Burwash Airport 14 21 20 8/3 29.20 CYDB 232100Z 12014G21KT 20SM FEW028 SCT050 OVC150 08/03 A2920 RMK SC2SC2AC4 DIST SH NE-SE ACSL SLP911 DENSITY ALT 3300FT
YAY CYAY St. Anthony, CA St. Anthony Airport 9 9 16/15 29.20 CYAY 232100Z AUTO 11009KT 9SM SCT041 SCT100 BKN200 16/15 A2920 RMK SLP889 DENSITY ALT 1000FT
PALJ 0 25 9/4 29.20 PALJ 232057Z 00000KT 25SM SCT020 BKN060 09/04 A2920 RMK EST PASS OPN NOSPECI
PIP PAPN Pilot Point, US Pilot Point Airport 14 9 8/2 29.20 PAPN 232056Z AUTO 35014KT 9SM OVC030 08/03 A2920 RMK AO2 SLP902 T00830028 50008
ANX ENAN Andenes, NO Andøya Airport 43 58 6.21 7/4 29.20 ENAN 232120Z AUTO 26043G58KT 9999 FEW005/// OVC018/// 07/04 Q0989
LYR ENSB Longyearbyen, NO Svalbard Airport, Longyear 4 4.97 -1/-2 29.20 ENSB 232050Z 36004KT 320V030 8000 -SN VV016 M01/M02 Q0989 RMK WIND 1400FT 03006KT
GKN PAGK Gulkana, US Gulkana Airport 3 10 6/2 29.21 PAGK 232104Z AUTO 36003KT 10SM BKN011 OVC100 07/03 A2921 RMK AO2 T00670028 TSNO

High pressure

Station
 
Location
 
Name
 
Wind
Knots
Gust
Knots
Vis
SM
Temp/Dew
C
Baro
inHg
METAR
 
KMYP 4 10 11/-3 30.71 KMYP 232115Z AUTO 14004KT 10SM SCT060 BKN070 OVC085 11/M03 A3071 RMK AO2
LPB SLLP La Paz / El Alto, BO El Alto International Airport 20 31 6.21 15/-23 30.65 SLLP 232100Z 10020G31KT 9999 FEW020 15/M23 Q1038
KCPW 6 10 13/-6 30.65 KCPW 232114Z AUTO 01006KT 10SM SCT075 13/M06 A3065 RMK AO2
K0CO 16 24 10 8/-1 30.64 K0CO 232115Z AUTO 32016G24KT 10SM SCT065 SCT075 08/M01 A3064 RMK AO2 PWINO
KCCU 11 17 10 12/-5 30.63 KCCU 232115Z AUTO 30011G17KT 10SM OVC075 12/M05 A3063 RMK AO2

Station
 
Location
 
Name
 
Wind
Knots
Gust
Knots
Vis
SM
Temp/Dew
C
Baro
inHg
METAR
 
K5SM 3 10 13/-3 30.59 K5SM 232111Z AUTO 24003KT 10SM CLR 13/M03 A3059 RMK AO2
K4BM 0 10 13/-3 30.58 K4BM 232115Z AUTO 00000KT 10SM SCT080 13/M03 A3058 RMK AO2
KC99 11 20 10 12/-3 30.53 KC99 232112Z AUTO 30011G20KT 270V330 10SM SCT065 SCT090 12/M03 A3053 RMK AO2
KC07 7 15 10 14/-1 30.53 KC07 232115Z AUTO 31007G15KT 270V010 10SM SCT055 14/M01 A3053 RMK AO2
KVTP 8 10 13/0 30.48 KVTP 232118Z AUTO 11008KT 10SM -DZ SCT017 SCT035 BKN070 13/00 A3048 RMK AO2
TEX KTEX Telluride, US Telluride Regional Airport 5 10 20/-5 30.47 KTEX 232115Z AUTO 02005KT 10SM CLR 20/M05 A3047 RMK AO2
LXV KLXV Leadville, US Lake County Airport 11 16 10 17/-7 30.46 KLXV 232053Z AUTO 30011G16KT 10SM FEW100 17/M07 A3046 RMK AO2 SLP164 T01721072 58010
K7BM 0 10 18/-10 30.46 K7BM 232115Z AUTO 00000KT 10SM SCT100 18/M10 A3046 RMK AO2
FASI Del Fouche, ZA Springs Airfield 0 13/7 30.44 FASI 232100Z AUTO 00000KT //// // ////// 13/07 Q1031
IPC SCIP Isla De Pascua, CL Mataveri Airport 15 6.21 20/9 30.41 SCIP 232100Z 11015KT 9999 FEW040 OVC060 20/09 Q1030 NOSIG
CUZ SPZO Cusco, PE Alejandro Velasco Astete International Airport 15 29 6.21 19/-3 30.41 SPZO 232100Z 01015G29KT 9999 NSC 19/M03 Q1030 NOSIG RMK BIRD HAZARD RWY 28 PP000
BSF PHSF Camp Pohakuloa, US Bradshaw Army Airfield 8 10 23/10 30.40 PHSF 232114Z AUTO 15008KT 10SM -RA BKN050 23/10 A3040 RMK AO2 RAB14 SLP169 WND DATA ESTMD $
BCE KBCE Bryce Canyon, US Bryce Canyon Airport 7 10 24/-6 30.39 KBCE 232053Z AUTO 30007KT 10SM CLR 24/M06 A3039 RMK AO2 SLP182 T02441061 58013
K33V 8 16 21/-4 30.36 K33V 232115Z AUTO 31008G16KT BKN095 21/M04 A3036 RMK AO1
SBBQ Barbacena, BR Major Brigadeiro Doorgal Borges Airport 7 2.49 15/13 30.35 SBBQ 232100Z 10007KT 4000 BR OVC007 15/13 Q1028
LTX SELT Latacunga, EC Cotopaxi International Airport 17 6.21 14/7 30.35 SELT 232100Z 17017KT 9999 SCT030 BKN300 14/07 Q1028
KGNB Granby, US Granby Grand County Airport 12 19 10 22/-1 30.35 KGNB 232112Z AUTO 25012G19KT 220V280 10SM SCT110 22/M02 A3035 RMK AO2 T02211019
SLT KANK Salida, US Salida Airport Harriett Alexander Field 5 10 25/-8 30.35 KANK 232115Z AUTO 33005KT 10SM CLR 26/M08 A3035 RMK AO1 T02571085
KL35 9 15 10 23/-1 30.35 KL35 232115Z AUTO 05009G15KT 10SM CLR 23/M01 A3035 RMK AO2
ASE KASE Aspen, US Aspen-Pitkin Co/Sardy Field 9 16 10 22/-2 30.34 KASE 232053Z 04009G16KT 10SM BKN110 22/M02 A3034 RMK AO2 WSHFT 2006 SLP162 T02221022 57017
AXX KAXX Angel Fire, US Angel Fire Airport 16 10 19/0 30.34 KAXX 232115Z AUTO 10016KT 10SM BKN100 BKN120 20/01 A3034 RMK AO2 T01950006
EVW KEVW Evanston, US Evanston-Uinta County Airport-Burns Field 14 10 23/-7 30.33 KEVW 232053Z AUTO 30014KT 10SM CLR 24/M07 A3033 RMK AO2 SLP182 6//// T02391072 58009
KP60 17/-2 30.33 KP60 232056Z AUTO 17/M02 A3033 RMK AO1 SLP219 T01721022 56007
FLG KFLG Flagstaff, US Flagstaff Pulliam Airport 13 10 25/0 30.33 KFLG 232057Z COR 05013KT 10SM FEW090 26/00 A3033 RMK AO2 SLP174 T02560000 58014
KRCV 6 10 22/0 30.33 KRCV 232115Z AUTO 10006KT 10SM BKN095 OVC120 23/00 A3033 RMK AO2 T02270003
KU55 4 10 26/-5 30.33 KU55 232115Z AUTO VRB04KT 10SM CLR 26/M05 A3033 RMK A01
MMH KMMH Mammoth Lakes, US Mammoth Yosemite Airport 9 7 25/-8 30.33 KMMH 232116Z AUTO 11009KT 7SM CLR 25/M08 A3033 RMK AO2
JNB FAOR Johannesburg, ZA OR Tambo International Airport 7 6.21 16/7 30.32 FAOR 232100Z 29007KT CAVOK 16/07 Q1027 NOSIG
WKF FAWK Pretoria, ZA Waterkloof Air Force Base 0 13/7 30.32 FAWK 232100Z AUTO 00000KT //// // ////// 13/07 Q1027
FDPP 7 13/7 30.32 FDPP 232100Z AUTO 03007KT //// // ////// 13/07 Q1027
ADD HAAB Addis Ababa, ET Addis Ababa Bole International Airport 2 6.21 15/13 30.32 HAAB 232100Z 10002KT 9999 BKN005 15/13 Q1027
UUS UHSS Yuzhno-Sakhalinsk, RU Yuzhno-Sakhalinsk Airport 6 6.21 3/3 30.32 UHSS 232100Z 35003MPS 9999 NSC 03/03 Q1027 R01/70D NOSIG RMK QFE769/1026
TLC MMTO Toluca, MX Licenciado Adolfo Lopez Mateos International Airport 8 4 18/8 30.32 MMTO 232046Z 07008KT 4SM BKN015CB BKN070 OVC200 18/08 A3032 RMK SLP074 57019 900 8/963 HZY OCNL DROPS DSNT PCPN SE
GCN KGCN Grand Canyon, US Grand Canyon National Park Airport 7 17 10 26/0 30.32 KGCN 232054Z 21007G17KT 160V290 10SM CLR 27/01 A3032 RMK AO2 SLP182 T02670006 58015
GUC KGUC Gunnison, US Gunnison Crested Butte Regional Airport 4 10 22/-1 30.32 KGUC 232056Z AUTO 23004KT 10SM BKN100 BKN110 23/M01 A3032 RMK AO2 SLP205 T02281011 56020
K20V 10 16 10 24/-1 30.32 K20V 232115Z AUTO 34010G16KT 10SM CLR 24/M01 A3032 RMK AO2
KAEJ Buena Vista, US Central Colorado Regional Airport 10 16 10 23/-10 30.32 KAEJ 232115Z AUTO 30010G16KT 10SM CLR 23/M10 A3032 RMK AO2 T02331100
KCMR Williams, US H.A. Clark Memorial Field 8 14 10 26/-2 30.32 KCMR 232115Z AUTO 32008G14KT 300V360 10SM CLR 26/M02 A3032 RMK AO2
EMM KEMM Kemmerer, US Kemmerer Municipal Airport 14 21 10 22/-6 30.32 KEMM 232115Z AUTO 26014G21KT 10SM CLR 22/M06 A3032 RMK AO2
KJTC 10 16 10 25/-1 30.32 KJTC 232115Z AUTO 34010G16KT 300V020 10SM FEW095 25/M01 A3032 RMK AO2
KTBX 10 20/-7 30.32 KTBX 232115Z AUTO 10SM CLR 20/M07 A3032 RMK AO2
K04V 14 10 21/-1 30.31 K04V 232115Z AUTO 31014KT 10SM SCT120 21/M01 A3031 RMK AO2
BOG SKBO Bogota, CO El Dorado International Airport 7 6.21 17/8 30.30 SKBO 232100Z 12007KT 9999 SCT020 BKN070 17/08 A3030 NOSIG
PWY KPNA Pinedale, US Ralph Wenz Field 7 12 10 22/-5 30.30 KPNA 232110Z AUTO 27007G12KT 10SM CLR 22/M05 A3030 RMK AO2
BDG KBDG Blanding, US Blanding Municipal Airport 0 10 26/0 30.30 KBDG 232115Z AUTO 00000KT 10SM 27/00 A3030 RMK AO1 T02650000